Aérodrome :
LOGIN :

S'inscrire | Disclaimer

   EN    FR    IT 

 










Légende :    VFR   VFR Marginal   IFR   IFR Intensif   IFR Très Intensif
Visi : 
Plafond : 
>= 8 km
>= 3000ft
5 à 8 km
1000 à 3000 ft
1500m à 5 km
500 à 1000 ft
800 à 1500m
200 à 500 ft
< 800m
< 200 ft
Symboles :   Orages  Brouillard  Fortes neiges  Fortes précipitations  Vent > 20 kt
SIGMETs :   Divers  Orages  Givrage  Turbulence  Onde Orograph.  Cendres Volcan.







- Altitude de l'aérodrome : 527 ft
- Code IATA : DBV


LDDU - Dubrovnik

DERNIER METAR :
  • 251000Z 17007KT 120V250 CAVOK 21/12 Q1018 NOSIG

METARs EXPIRÉS :
  • 250930Z 16008KT 110V220 CAVOK 21/10 Q1019 NOSIG
  • 250900Z 17008KT 140V220 CAVOK 21/09 Q1019 NOSIG
  • 250830Z 16006KT 130V210 CAVOK 21/12 Q1019 NOSIG
  • 250800Z VRB03KT CAVOK 21/14 Q1019 NOSIG
  • 250730Z VRB03KT CAVOK 20/13 Q1019 NOSIG

TAF TAF LDDU
Valide du 25 à 06h jusqu'au 26 à 06h UTC


250525Z 2506/2606 VRB02KT CAVOK TX22/2512Z TN12/2602Z
TEMPO 2512/2517 26008KT
Pas de NOTAMs connus pour ce terrain.



MET'MAP, la Météo Aéronautique d'un coup d'oeil ! - Copyright ORBIFLY Décembre 2007 - Disclaimer

ORBIFLY MET'MAP TEAM :

Programmation & Développement : Alexandra Zaïnal
Conception & Développement : Baudouin d'Aumeries
Co-Programmation & Développement : Marc-Olivier Méhu
Soutien technique & logistique : Manuel Goepfert

Contact : metmap@orbifly.com




SOURCES & CREDITS :

   NOAA